Huvudsida
METAR-TAF:

METAR-TAF

Flygplatser :

Kimberley, Sydafrika

latitud: 28-48S, longitud: 024-46E, höjd: 1198 m

Aktuellt väderrapport

Denna rapport gjordes för 1 timme och 18 minuter sedan, klockan 15:00 UTC
Vind 3 kt från sydost
Temperatur 19°C
Fuktighet 49%
Tryck 1030 hPa
Sikt 10 km eller mer
Inga moln under 1 500 m eller inga cumulonimbus

METAR: FAKM 251500Z 14003KT CAVOK 19/08 Q1030

Tid: 18:18 (16:18 UTC)

Väderprognos

Denna rapport gjordes för 7 timmar och 18 minuter sedan, klockan 09:00 UTC
Prognos gäller från 25 kl. 10 UTC till 25 kl. 18 UTC
Vind 5 kt från syd/sydost
Sikt 10 km eller mer
Inga moln under 1 500 m eller inga cumulonimbus

TAF: FAKM 250900Z 2510/2518 16005KT CAVOK TX20/2512Z TN14/2518Z

Aktuella väderrapporter och prognoser från 4000 flygplatser (METAR- och TAF-rapporter).

De tillgängliga stationerna syns som gula och röda prickar på kartan.

För musen över prickarna för att se namnen på stationerna.

Klicka sedan för att få väderrapporter och prognoser.

För att ändra kartan: Klicka på de gröna knapparna med ett svart kors på för att zooma in; den gröna knappen med ett streck på för att zooma ut; eller på de gröna pilarna för angränsande kartor.


METAR-TAF: